Time;durP1;ratioP1;P1;durP2;ratioP2;P2;SDS_P1;SDS_P2;PMS_P1;PMS_P2;Temp;Humidity;BMP_temperature;BMP_pressure;BME280_temperature;BME280_humidity;BME280_pressure;Samples;Min_cycle;Max_cycle;Signal;HPM_P1;HPM_P2
2021/04/14 00:02:00;;;;;;;18.80;11.68;;;;;;;4.79;87.08;100492.58;1698197;82;21205;-81
2021/04/14 00:05:06;;;;;;;14.50;10.65;;;;;;;4.66;87.30;100496.03;1701731;84;21826;-81
2021/04/14 00:08:13;;;;;;;12.63;9.58;;;;;;;4.61;88.07;100494.19;1701408;84;21331;-81
2021/04/14 00:11:24;;;;;;;17.10;11.65;;;;;;;4.57;88.80;100494.97;1700679;84;21242;-81
2021/04/14 00:14:32;;;;;;;19.95;13.03;;;;;;;4.56;89.71;100486.95;1700604;84;21182;-81
2021/04/14 00:17:37;;;;;;;18.70;13.18;;;;;;;4.48;90.01;100484.08;1702170;84;21237;-81
2021/04/14 00:20:47;;;;;;;23.32;13.32;;;;;;;4.43;90.16;100474.14;1701162;84;21218;-81
2021/04/14 00:23:52;;;;;;;22.17;14.65;;;;;;;4.42;90.29;100471.05;1702153;84;21324;-81
2021/04/14 00:26:57;;;;;;;21.75;13.50;;;;;;;4.45;90.53;100474.36;1702036;84;21308;-81
2021/04/14 00:30:02;;;;;;;14.38;9.95;;;;;;;4.47;90.43;100475.56;1701651;82;21324;-81
2021/04/14 00:33:09;;;;;;;16.85;11.90;;;;;;;4.42;89.82;100480.52;1688266;85;21218;-81
2021/04/14 00:36:14;;;;;;;18.80;10.38;;;;;;;4.35;89.52;100479.70;1680495;85;21296;-81
2021/04/14 00:39:28;;;;;;;17.30;11.35;;;;;;;4.37;89.75;100484.98;1720769;82;21279;-81
2021/04/14 00:42:33;;;;;;;18.62;12.10;;;;;;;4.44;90.07;100481.27;1717919;83;21298;-81
2021/04/14 00:45:38;;;;;;;20.65;13.45;;;;;;;4.52;90.18;100480.12;1702622;82;21268;-81
2021/04/14 00:48:43;;;;;;;21.12;13.15;;;;;;;4.56;90.02;100475.66;1718129;83;21319;-81
2021/04/14 00:51:49;;;;;;;21.07;13.43;;;;;;;4.62;90.07;100474.25;1699032;83;21291;-81
2021/04/14 00:54:56;;;;;;;21.25;13.93;;;;;;;4.72;90.70;100477.02;1716667;82;21156;-81
2021/04/14 00:58:02;;;;;;;24.10;14.65;;;;;;;4.83;91.46;100472.84;1701172;83;21781;-81
2021/04/14 01:01:11;;;;;;;34.75;18.57;;;;;;;4.97;92.30;100470.27;1718218;82;21177;-81
2021/04/14 01:04:18;;;;;;;31.70;16.05;;;;;;;5.16;93.36;100463.56;1718069;83;21238;-81
2021/04/14 01:07:23;;;;;;;30.08;16.95;;;;;;;5.30;93.83;100468.59;1718080;83;21318;-82
2021/04/14 01:10:30;;;;;;;39.75;18.77;;;;;;;5.36;93.42;100461.75;1716657;82;21153;-82
2021/04/14 01:13:35;;;;;;;37.20;18.30;;;;;;;5.45;93.10;100453.28;1717991;83;21311;-82
2021/04/14 01:16:43;;;;;;;39.83;20.75;;;;;;;5.57;93.07;100446.75;1716617;82;21173;-81
2021/04/14 01:19:47;;;;;;;41.40;20.32;;;;;;;5.64;93.12;100441.09;1718080;83;21320;-81
2021/04/14 01:22:53;;;;;;;53.83;25.32;;;;;;;5.70;93.26;100445.12;1702124;83;21184;-81
2021/04/14 01:25:59;;;;;;;40.00;20.70;;;;;;;5.72;93.40;100444.47;1718150;83;21157;-81
2021/04/14 01:29:05;;;;;;;52.67;22.00;;;;;;;5.74;93.56;100443.81;1718157;83;21320;-81
2021/04/14 01:32:10;;;;;;;48.48;21.45;;;;;;;5.80;93.73;100454.13;1701257;83;21216;-81
2021/04/14 01:35:18;;;;;;;51.30;23.22;;;;;;;5.88;93.87;100448.34;1716756;82;21225;-81
2021/04/14 01:38:23;;;;;;;43.95;22.22;;;;;;;5.96;93.85;100442.72;1760458;81;21190;-81
2021/04/14 01:41:28;;;;;;;42.83;20.35;;;;;;;6.02;93.71;100448.45;1744993;81;21755;-82
2021/04/14 01:44:34;;;;;;;50.20;25.45;;;;;;;6.02;93.24;100445.73;1761680;81;21524;-82
2021/04/14 01:47:40;;;;;;;55.35;25.55;;;;;;;5.92;92.95;100446.72;1761519;81;21309;-81
2021/04/14 01:50:49;;;;;;;50.28;23.85;;;;;;;5.85;93.05;100449.98;1761602;81;21175;-82
2021/04/14 01:53:55;;;;;;;66.25;28.62;;;;;;;5.78;93.22;100445.25;1761504;81;21194;-82
2021/04/14 01:57:01;;;;;;;64.87;28.75;;;;;;;5.69;93.42;100440.67;1761570;81;21155;-81
2021/04/14 02:00:08;;;;;;;66.33;31.05;;;;;;;5.66;93.80;100433.69;1761444;81;21281;-81
2021/04/14 02:03:14;;;;;;;64.55;27.30;;;;;;;5.62;94.15;100426.33;1759912;81;21324;-81
2021/04/14 02:06:22;;;;;;;55.43;24.10;;;;;;;5.59;94.65;100430.66;1738319;82;21272;-81
2021/04/14 02:09:28;;;;;;;48.48;22.37;;;;;;;5.55;95.13;100422.95;1755050;82;21162;-81
2021/04/14 02:12:34;;;;;;;47.08;21.50;;;;;;;5.45;95.41;100419.38;1754964;82;21205;-81
2021/04/14 02:15:42;;;;;;;50.80;25.52;;;;;;;5.35;95.63;100413.94;1755774;81;21838;-81
2021/04/14 02:18:49;;;;;;;55.67;25.90;;;;;;;5.29;95.87;100409.93;1756639;81;21328;-81
2021/04/14 02:21:54;;;;;;;51.95;23.02;;;;;;;5.30;96.10;100414.35;1738941;81;21153;-82
2021/04/14 02:25:00;;;;;;;69.80;27.85;;;;;;;5.41;96.51;100418.82;1756683;81;21241;-82
2021/04/14 02:28:04;;;;;;;114.82;28.67;;;;;;;5.47;96.57;100415.53;1740084;81;21292;-82
2021/04/14 02:31:11;;;;;;;93.30;29.85;;;;;;;5.56;96.59;100418.77;1747755;81;21196;-81
2021/04/14 02:34:20;;;;;;;75.00;30.17;;;;;;;5.64;96.40;100415.31;1738712;82;21758;-82
2021/04/14 02:37:27;;;;;;;110.28;32.80;;;;;;;5.71;96.19;100416.48;1738270;81;21202;-81
2021/04/14 02:40:34;;;;;;;80.40;32.33;;;;;;;5.80;95.98;100412.05;1731471;83;21780;-81
2021/04/14 02:43:40;;;;;;;76.20;30.00;;;;;;;5.85;95.65;100413.33;1731673;83;21511;-81
2021/04/14 02:46:46;;;;;;;66.17;26.62;;;;;;;5.83;94.98;100409.92;1738317;80;21693;-82
2021/04/14 02:49:51;;;;;;;77.70;27.93;;;;;;;5.78;94.56;100398.60;1740058;81;21140;-82
2021/04/14 02:52:57;;;;;;;76.07;31.30;;;;;;;5.70;94.06;100403.91;1754763;82;21278;-82
2021/04/14 02:56:03;;;;;;;50.28;27.45;;;;;;;5.61;93.69;100412.41;1754857;82;21401;-82
2021/04/14 02:59:10;;;;;;;41.90;22.35;;;;;;;5.56;93.57;100407.91;1754957;81;21286;-82
2021/04/14 03:02:16;;;;;;;79.90;34.10;;;;;;;5.48;93.50;100409.61;1761576;80;21180;-82
2021/04/14 03:05:24;;;;;;;56.33;29.02;;;;;;;5.38;93.59;100424.52;1754743;82;21282;-82
2021/04/14 03:08:29;;;;;;;49.13;24.02;;;;;;;5.27;93.80;100425.50;1754743;82;21160;-82
2021/04/14 03:11:35;;;;;;;47.43;26.75;;;;;;;5.21;94.03;100422.47;1754811;81;21274;-82
2021/04/14 03:14:40;;;;;;;33.23;21.52;;;;;;;5.20;94.47;100414.84;1739994;82;21144;-82
2021/04/14 03:17:45;;;;;;;38.92;23.38;;;;;;;5.29;95.00;100416.71;1726663;81;21246;-82
2021/04/14 03:20:51;;;;;;;42.38;24.52;;;;;;;5.38;95.38;100423.16;1731618;83;21278;-82
2021/04/14 03:23:57;;;;;;;32.48;18.87;;;;;;;5.49;95.65;100428.95;1731542;83;21282;-82
2021/04/14 03:27:03;;;;;;;40.20;19.92;;;;;;;5.57;95.86;100439.96;1723661;83;21945;-82
2021/04/14 03:30:08;;;;;;;36.42;22.90;;;;;;;5.49;95.76;100428.95;1757091;81;21307;-82
2021/04/14 03:33:13;;;;;;;32.73;17.82;;;;;;;5.44;95.84;100433.94;1724905;81;21239;-82
2021/04/14 03:36:19;;;;;;;29.92;18.73;;;;;;;5.42;96.03;100429.17;1731658;83;21278;-82
2021/04/14 03:39:25;;;;;;;27.73;16.77;;;;;;;5.40;96.28;100433.36;1730321;82;21293;-82
2021/04/14 03:42:31;;;;;;;23.87;15.60;;;;;;;5.37;96.48;100432.30;1731633;83;21342;-82
2021/04/14 03:45:45;;;;;;;23.90;14.07;;;;;;;5.37;96.74;100426.87;1731452;83;21702;-82
2021/04/14 03:48:49;;;;;;;24.75;14.28;;;;;;;5.36;97.01;100431.45;1723846;82;21302;-82
2021/04/14 03:51:55;;;;;;;29.27;17.50;;;;;;;5.35;97.34;100427.50;1723095;82;21314;-82
2021/04/14 03:55:01;;;;;;;29.87;16.97;;;;;;;5.37;97.71;100431.80;1731465;81;21298;-82
2021/04/14 03:58:06;;;;;;;33.10;19.10;;;;;;;5.43;98.06;100432.23;1731491;83;21219;-82
2021/04/14 04:01:18;;;;;;;40.28;23.35;;;;;;;5.48;98.37;100424.02;1734409;81;21876;-82
2021/04/14 04:04:23;;;;;;;42.03;21.95;;;;;;;5.61;98.64;100425.12;1759048;80;21305;-82
2021/04/14 04:07:29;;;;;;;45.63;23.10;;;;;;;5.76;98.92;100416.91;1759323;81;21769;-82
2021/04/14 04:10:35;;;;;;;47.03;23.42;;;;;;;5.85;98.89;100417.41;1757932;81;21159;-82
2021/04/14 04:13:41;;;;;;;59.45;32.60;;;;;;;5.95;98.77;100414.72;1759340;81;21752;-82
2021/04/14 04:16:46;;;;;;;58.42;29.82;;;;;;;6.02;98.57;100414.98;1759222;81;21167;-82
2021/04/14 04:19:53;;;;;;;65.10;32.00;;;;;;;6.08;98.42;100412.56;1724692;81;21297;-82
2021/04/14 04:22:58;;;;;;;57.35;29.48;;;;;;;6.13;98.24;100414.84;1759306;81;21202;-82
2021/04/14 04:26:06;;;;;;;74.62;34.20;;;;;;;6.18;98.12;100409.83;1759310;81;21273;-82
2021/04/14 04:29:12;;;;;;;66.00;32.60;;;;;;;6.29;98.10;100409.66;1759182;81;21277;-82
2021/04/14 04:32:17;;;;;;;89.40;42.45;;;;;;;6.42;98.12;100410.70;1758932;81;21330;-82
2021/04/14 04:35:25;;;;;;;82.57;39.95;;;;;;;6.56;98.11;100410.73;1739059;81;21309;-82
2021/04/14 04:38:30;;;;;;;100.15;47.53;;;;;;;6.71;98.06;100411.96;1725298;81;21310;-82
2021/04/14 04:41:36;;;;;;;104.20;49.20;;;;;;;6.85;97.96;100411.48;1715580;82;21291;-82
2021/04/14 04:44:41;;;;;;;86.82;39.42;;;;;;;6.99;97.73;100414.71;1699233;82;21826;-82
2021/04/14 04:47:48;;;;;;;102.38;45.28;;;;;;;7.08;97.24;100407.00;1738304;82;21339;-82
2021/04/14 04:50:54;;;;;;;109.37;52.05;;;;;;;7.16;96.79;100409.84;1714035;82;21220;-82
2021/04/14 04:54:03;;;;;;;102.17;49.10;;;;;;;7.24;96.34;100409.91;1738039;82;21351;-82
2021/04/14 04:57:08;;;;;;;88.90;41.25;;;;;;;7.37;96.03;100411.77;1738103;82;21302;-82
2021/04/14 05:00:15;;;;;;;97.25;42.70;;;;;;;7.53;95.70;100408.86;1733228;81;21771;-82
2021/04/14 05:03:20;;;;;;;76.33;38.55;;;;;;;7.64;95.22;100402.70;1734959;81;21157;-82
2021/04/14 05:06:27;;;;;;;92.37;41.13;;;;;;;7.81;94.83;100400.11;1710607;82;21165;-82
2021/04/14 05:09:33;;;;;;;93.27;41.92;;;;;;;7.96;94.34;100397.72;1738087;81;21288;-82
2021/04/14 05:12:38;;;;;;;92.82;43.33;;;;;;;8.09;93.95;100396.30;1737451;82;21798;-82
2021/04/14 05:15:45;;;;;;;88.07;39.78;;;;;;;8.22;93.42;100397.22;1736543;82;21296;-82
2021/04/14 05:18:51;;;;;;;71.15;36.13;;;;;;;8.35;93.09;100397.66;1689636;84;21191;-82
2021/04/14 05:21:57;;;;;;;79.47;38.40;;;;;;;8.49;92.75;100398.12;1691804;83;21330;-82
2021/04/14 05:25:03;;;;;;;79.90;37.63;;;;;;;8.63;92.31;100396.17;1664118;85;21309;-82
2021/04/14 05:28:11;;;;;;;108.03;45.60;;;;;;;8.81;92.06;100391.50;1701669;82;21209;-82
2021/04/14 05:31:17;;;;;;;104.47;44.55;;;;;;;9.01;91.40;100391.25;1690908;83;21271;-82
2021/04/14 05:34:23;;;;;;;99.75;45.95;;;;;;;9.21;90.70;100389.95;1740514;81;21916;-82
2021/04/14 05:37:28;;;;;;;96.45;46.58;;;;;;;9.39;89.59;100393.41;1717549;81;21319;-82
2021/04/14 05:40:34;;;;;;;95.25;47.03;;;;;;;9.55;88.27;100389.00;1725257;80;21338;-83
2021/04/14 05:43:44;;;;;;;112.92;51.25;;;;;;;9.71;87.25;100393.14;1727728;81;21571;-83
2021/04/14 05:46:49;;;;;;;87.08;40.35;;;;;;;9.72;84.92;100390.23;1726994;81;21265;-83
2021/04/14 05:49:57;;;;;;;92.82;44.27;;;;;;;9.74;84.42;100387.36;1725618;81;21169;-82
2021/04/14 05:53:03;;;;;;;88.52;43.02;;;;;;;9.77;83.70;100386.14;1721202;81;21303;-83
2021/04/14 05:56:09;;;;;;;90.42;42.90;;;;;;;9.75;83.68;100382.23;1709365;81;21359;-82
2021/04/14 05:59:18;;;;;;;77.05;36.70;;;;;;;9.82;83.64;100387.34;1724767;81;21268;-83
2021/04/14 06:02:24;;;;;;;86.63;41.18;;;;;;;9.91;83.59;100378.64;1723576;82;21173;-83
2021/04/14 06:05:31;;;;;;;91.95;42.95;;;;;;;9.99;82.94;100381.38;1682556;83;21304;-83
2021/04/14 06:08:37;;;;;;;103.62;43.52;;;;;;;10.07;82.24;100377.30;1671269;84;21904;-82
2021/04/14 06:11:43;;;;;;;86.37;38.83;;;;;;;10.14;82.20;100380.18;1682500;84;21283;-82
2021/04/14 06:14:49;;;;;;;83.75;37.88;;;;;;;10.25;82.17;100381.22;1735117;81;21288;-81
2021/04/14 06:17:55;;;;;;;94.47;39.10;;;;;;;10.39;81.91;100386.50;1733497;81;21302;-81
2021/04/14 06:21:02;;;;;;;78.35;36.75;;;;;;;10.45;81.11;100387.19;1728912;81;21300;-81
2021/04/14 06:24:08;;;;;;;82.82;34.63;;;;;;;10.51;80.82;100382.91;1711173;81;21822;-81
2021/04/14 06:27:26;;;;;;;72.80;33.42;;;;;;;10.60;80.07;100373.66;1728048;81;21177;-81
2021/04/14 06:30:20;;;;;;;64.72;33.38;;;;;;;10.68;79.24;100377.70;1739465;81;21326;-81
2021/04/14 06:33:27;;;;;;;73.87;34.13;;;;;;;10.72;77.98;100375.81;1715097;81;21330;-82
2021/04/14 06:36:32;;;;;;;54.45;28.15;;;;;;;10.71;77.58;100373.27;1704456;81;21181;-82
2021/04/14 06:39:40;;;;;;;63.92;29.25;;;;;;;10.83;77.91;100369.13;1736731;81;21275;-82
2021/04/14 06:43:09;;;;;;;61.63;29.48;;;;;;;10.97;77.34;100363.44;1743009;79;21487;-81
2021/04/14 06:46:35;;;;;;;64.65;29.40;;;;;;;11.11;77.03;100364.05;1753147;80;21316;-83
2021/04/14 06:49:53;;;;;;;62.45;28.20;;;;;;;11.28;76.81;100363.95;1717085;82;21261;-82
2021/04/14 06:53:04;;;;;;;55.67;25.52;;;;;;;11.39;76.08;100353.47;1717563;81;21294;-82
2021/04/14 06:56:24;;;;;;;51.83;22.65;;;;;;;11.38;73.89;100347.62;1696614;82;22413;-82
2021/04/14 06:59:31;;;;;;;51.53;22.13;;;;;;;11.28;73.77;100356.59;1696026;82;21196;-83
2021/04/14 07:03:01;;;;;;;48.87;22.05;;;;;;;11.32;74.15;100346.98;1715659;81;21873;-83
2021/04/14 07:06:10;;;;;;;48.33;23.02;;;;;;;11.37;73.58;100343.19;1722027;81;21304;-81
2021/04/14 07:09:46;;;;;;;56.20;23.27;;;;;;;11.44;73.15;100339.23;1681982;82;21225;-82
2021/04/14 07:12:52;;;;;;;30.62;16.60;;;;;;;11.49;72.45;100340.91;1714375;81;21312;-82
2021/04/14 07:16:19;;;;;;;53.80;22.80;;;;;;;11.55;71.80;100337.95;1698275;82;21280;-82
2021/04/14 07:19:59;;;;;;;43.25;21.87;;;;;;;11.62;71.53;100337.05;1696940;82;21170;-83
2021/04/14 07:23:26;;;;;;;40.55;19.27;;;;;;;11.78;72.28;100332.80;1714357;81;21303;-82
2021/04/14 07:26:58;;;;;;;41.68;19.75;;;;;;;11.95;71.92;100324.45;1704065;82;21355;-82
2021/04/14 07:30:30;;;;;;;37.38;15.88;;;;;;;12.11;71.43;100319.36;1696797;83;21256;-81
2021/04/14 07:34:01;;;;;;;37.80;18.23;;;;;;;12.20;69.40;100328.69;1758128;79;21215;-84
2021/04/14 07:37:18;;;;;;;35.08;19.12;;;;;;;12.19;68.82;100325.63;1761720;79;21302;-84
2021/04/14 07:40:44;;;;;;;28.35;12.45;;;;;;;12.20;67.98;100324.58;1746624;79;21744;-81
2021/04/14 07:44:19;;;;;;;30.50;14.95;;;;;;;12.14;66.53;100330.82;1760295;79;21267;-82
2021/04/14 07:47:25;;;;;;;18.82;11.05;;;;;;;12.11;66.61;100333.07;1761718;79;21533;-82
2021/04/14 07:50:39;;;;;;;26.48;13.15;;;;;;;12.22;66.46;100328.49;1762242;80;21255;-82
2021/04/14 07:53:48;;;;;;;15.08;8.73;;;;;;;12.22;66.72;100331.23;1765093;79;21148;-81
2021/04/14 07:56:56;;;;;;;24.65;13.05;;;;;;;12.29;66.31;100328.09;1748202;79;21483;-81
2021/04/14 08:00:02;;;;;;;26.47;12.07;;;;;;;12.33;66.55;100325.31;1704136;82;21718;-82
2021/04/14 08:03:23;;;;;;;27.13;13.05;;;;;;;12.33;65.91;100323.95;1687733;82;21867;-82
2021/04/14 08:06:37;;;;;;;25.32;13.00;;;;;;;12.31;66.09;100326.53;1702674;82;21283;-81
2021/04/14 08:10:06;;;;;;;23.00;11.95;;;;;;;12.28;66.03;100323.14;1690845;83;21351;-81
2021/04/14 08:13:17;;;;;;;28.25;14.13;;;;;;;12.21;65.41;100318.57;1700967;82;21212;-82
2021/04/14 08:16:31;;;;;;;24.30;11.53;;;;;;;12.25;65.74;100317.16;1717796;82;21318;-82
2021/04/14 08:19:43;;;;;;;29.00;13.78;;;;;;;12.31;65.55;100309.55;1687742;83;21276;-82
2021/04/14 08:22:51;;;;;;;38.58;15.63;;;;;;;12.40;64.46;100311.17;1708405;82;21317;-82
2021/04/14 08:25:59;;;;;;;37.35;17.02;;;;;;;12.35;64.12;100299.91;1710254;82;21263;-82
2021/04/14 08:29:20;;;;;;;39.08;18.60;;;;;;;12.38;64.65;100302.29;1692178;83;21310;-82
2021/04/14 08:32:27;;;;;;;48.00;21.48;;;;;;;12.48;64.59;100303.38;1703712;81;21306;-82
2021/04/14 08:35:43;;;;;;;57.48;24.00;;;;;;;12.50;63.87;100295.27;1727032;81;21200;-82
2021/04/14 08:38:50;;;;;;;62.48;25.68;;;;;;;12.48;63.53;100293.78;1728502;81;21854;-82
2021/04/14 08:41:56;;;;;;;78.87;33.30;;;;;;;12.60;63.60;100301.84;1732730;81;21267;-81
2021/04/14 08:45:25;;;;;;;62.38;26.77;;;;;;;12.70;63.10;100297.44;1724476;81;21168;-82
2021/04/14 08:48:36;;;;;;;73.65;30.80;;;;;;;12.81;63.20;100290.11;1714131;82;21923;-82
2021/04/14 08:51:46;;;;;;;84.52;33.58;;;;;;;12.97;62.53;100289.03;1675245;82;21249;-82
2021/04/14 08:54:56;;;;;;;59.00;26.97;;;;;;;13.04;62.25;100279.84;1691965;83;22151;-81
2021/04/14 08:58:03;;;;;;;77.08;32.08;;;;;;;13.09;61.74;100277.05;1714835;82;21286;-81
2021/04/14 09:01:11;;;;;;;33.70;16.57;;;;;;;13.21;62.46;100276.84;1715007;82;21346;-82
2021/04/14 09:04:19;;;;;;;22.17;12.28;;;;;;;13.34;61.22;100272.06;1715088;82;21815;-81
2021/04/14 09:07:30;;;;;;;27.45;12.68;;;;;;;13.26;60.91;100276.62;1686085;83;21850;-81
2021/04/14 09:10:53;;;;;;;25.43;11.97;;;;;;;13.23;60.82;100274.28;1712989;82;21165;-81
2021/04/14 09:14:15;;;;;;;20.60;8.05;;;;;;;13.15;61.27;100274.89;1709556;82;21243;-81
2021/04/14 09:17:27;;;;;;;16.40;8.45;;;;;;;13.07;60.88;100272.25;1711351;82;21773;-82
2021/04/14 09:20:35;;;;;;;23.05;9.60;;;;;;;13.09;61.37;100264.16;1715584;82;21278;-82
2021/04/14 09:23:43;;;;;;;20.32;9.15;;;;;;;13.23;60.65;100266.05;1693232;82;21309;-82
2021/04/14 09:26:51;;;;;;;15.85;8.35;;;;;;;13.29;59.72;100260.28;1691691;83;21132;-82
2021/04/14 09:30:42;;;;;;;16.50;7.78;;;;;;;13.39;59.42;100256.69;1714596;82;21310;-82
2021/04/14 09:33:51;;;;;;;14.25;8.30;;;;;;;13.42;59.22;100253.56;1713848;82;21290;-83
2021/04/14 09:37:09;;;;;;;16.02;7.30;;;;;;;13.43;58.53;100246.16;1719297;82;21289;-82
2021/04/14 09:40:17;;;;;;;12.65;6.67;;;;;;;13.42;57.95;100243.95;1715828;82;21321;-83
2021/04/14 09:43:37;;;;;;;9.83;6.50;;;;;;;13.57;58.02;100237.53;1691287;83;21263;-83
2021/04/14 09:46:48;;;;;;;13.03;7.12;;;;;;;13.77;57.68;100235.79;1715197;82;21878;-82
2021/04/14 09:49:56;;;;;;;17.80;7.05;;;;;;;13.89;57.61;100225.95;1717667;82;21390;-83
2021/04/14 09:53:11;;;;;;;12.30;7.42;;;;;;;13.91;56.77;100225.22;1716372;81;21223;-83
2021/04/14 09:56:24;;;;;;;7.03;5.78;;;;;;;14.09;55.72;100226.63;1715933;82;21321;-82
2021/04/14 09:59:42;;;;;;;14.20;6.08;;;;;;;14.06;56.17;100228.70;1696443;83;21291;-82
2021/04/14 10:02:49;;;;;;;9.73;6.08;;;;;;;14.10;56.31;100222.81;1718986;82;21836;-82
2021/04/14 10:05:53;;;;;;;13.85;6.22;;;;;;;14.07;55.50;100218.58;1718158;82;21310;-82
2021/04/14 10:09:05;;;;;;;9.75;5.78;;;;;;;14.08;55.96;100222.18;1719882;83;21321;-82
2021/04/14 10:12:24;;;;;;;9.18;6.65;;;;;;;14.09;56.42;100217.84;1696188;82;21262;-82
2021/04/14 10:15:44;;;;;;;10.23;5.58;;;;;;;14.03;55.82;100223.63;1697960;83;21958;-82
2021/04/14 10:18:49;;;;;;;12.05;6.62;;;;;;;13.94;55.59;100217.95;1718053;82;21290;-82
2021/04/14 10:21:55;;;;;;;11.15;5.78;;;;;;;13.78;56.31;100228.73;1717436;82;21244;-82
2021/04/14 10:25:17;;;;;;;9.53;5.28;;;;;;;13.74;56.59;100228.80;1715889;82;21191;-82
2021/04/14 10:28:29;;;;;;;8.23;5.28;;;;;;;13.73;56.58;100217.98;1719396;82;21333;-81
2021/04/14 10:31:35;;;;;;;15.95;6.62;;;;;;;13.74;56.17;100221.09;1713884;81;21311;-81
2021/04/14 10:34:44;;;;;;;17.02;7.28;;;;;;;13.67;55.99;100221.54;1712651;82;21203;-81
2021/04/14 10:37:58;;;;;;;12.13;7.00;;;;;;;13.60;55.91;100216.50;1705828;82;21718;-81
2021/04/14 10:41:03;;;;;;;11.50;6.70;;;;;;;13.59;56.33;100212.05;1708889;82;21891;-81
2021/04/14 10:44:09;;;;;;;10.65;6.97;;;;;;;13.69;55.94;100216.69;1695239;83;21861;-81
2021/04/14 10:47:37;;;;;;;8.88;5.40;;;;;;;13.60;55.88;100216.50;1689500;83;21280;-81
2021/04/14 10:50:44;;;;;;;10.95;6.03;;;;;;;13.53;56.63;100220.05;1693891;83;21325;-81
2021/04/14 10:53:49;;;;;;;11.85;6.97;;;;;;;13.55;56.51;100210.25;1713556;81;21291;-81
2021/04/14 10:57:11;;;;;;;13.48;8.28;;;;;;;13.54;56.77;100210.75;1686102;83;21249;-81
2021/04/14 11:00:30;;;;;;;11.40;6.40;;;;;;;13.60;56.36;100211.00;1709169;84;21859;-81
2021/04/14 11:03:34;;;;;;;13.00;7.28;;;;;;;13.65;56.30;100212.66;1709579;84;21255;-81
2021/04/14 11:06:41;;;;;;;16.82;7.12;;;;;;;13.63;56.25;100201.00;1694509;84;21809;-80
2021/04/14 11:09:48;;;;;;;13.80;7.67;;;;;;;13.64;56.33;100202.69;1705821;82;21308;-80
2021/04/14 11:12:54;;;;;;;13.32;6.85;;;;;;;13.67;56.57;100203.67;1691856;84;21192;-80
2021/04/14 11:15:59;;;;;;;10.55;6.58;;;;;;;13.73;56.87;100194.62;1698324;84;21836;-80
2021/04/14 11:19:05;;;;;;;9.55;7.28;;;;;;;13.72;56.64;100188.81;1691455;84;21307;-79
2021/04/14 11:22:14;;;;;;;14.18;8.68;;;;;;;13.75;56.41;100196.67;1701236;84;21432;-79
2021/04/14 11:25:38;;;;;;;11.63;6.35;;;;;;;13.69;56.67;100191.45;1706261;83;21785;-79
2021/04/14 11:28:58;;;;;;;9.03;5.80;;;;;;;13.63;56.32;100183.13;1693555;83;21287;-79
2021/04/14 11:32:04;;;;;;;10.08;6.20;;;;;;;13.65;56.92;100187.92;1699763;84;21798;-79
2021/04/14 11:35:17;;;;;;;11.90;6.83;;;;;;;13.67;56.18;100191.31;1715465;82;21163;-79
2021/04/14 11:38:42;;;;;;;12.03;7.33;;;;;;;13.54;55.85;100196.16;1736186;82;21183;-79
2021/04/14 11:42:12;;;;;;;14.15;8.38;;;;;;;13.37;56.63;100189.27;1736425;82;21863;-79
2021/04/14 11:45:18;;;;;;;;;;;;;;;13.27;57.11;100182.21;1726204;83;21732;-80
2021/04/14 11:48:26;;;;;;;14.05;7.53;;;;;;;13.20;57.93;100174.38;1779606;80;20676;-80
2021/04/14 11:51:45;;;;;;;11.95;6.67;;;;;;;13.19;58.08;100179.55;1778002;80;21286;-80
2021/04/14 11:54:51;;;;;;;17.60;6.80;;;;;;;13.15;58.18;100174.12;1717514;81;21687;-80
2021/04/14 11:58:33;;;;;;;9.70;5.95;;;;;;;13.09;58.00;100171.33;1779737;79;21282;-80
2021/04/14 12:01:40;;;;;;;11.85;7.15;;;;;;;13.05;57.97;100169.48;1722976;83;21176;-80
2021/04/14 12:04:46;;;;;;;12.85;6.70;;;;;;;13.02;57.74;100170.72;1774958;79;21164;-80
2021/04/14 12:07:51;;;;;;;18.20;7.00;;;;;;;13.02;57.88;100159.73;1724331;81;21281;-80
2021/04/14 12:10:58;;;;;;;12.98;6.75;;;;;;;13.07;57.87;100159.67;1781217;80;21242;-80
2021/04/14 12:14:03;;;;;;;15.00;7.12;;;;;;;13.06;57.62;100149.22;1776336;80;21847;-80
2021/04/14 12:17:10;;;;;;;22.32;10.50;;;;;;;13.05;58.34;100149.73;1778607;80;21215;-80
2021/04/14 12:20:17;;;;;;;20.48;10.68;;;;;;;13.03;57.96;100150.97;1782945;80;21199;-80
2021/04/14 12:23:22;;;;;;;23.73;12.30;;;;;;;13.02;58.24;100146.00;1780763;79;21850;-80
2021/04/14 12:26:29;;;;;;;28.83;13.43;;;;;;;13.03;58.33;100146.84;1781508;79;21836;-80
2021/04/14 12:29:35;;;;;;;25.35;11.35;;;;;;;13.03;58.52;100141.36;1781210;79;21171;-80
2021/04/14 12:32:41;;;;;;;21.80;9.40;;;;;;;13.06;58.54;100142.34;1777802;80;21270;-80
2021/04/14 12:35:48;;;;;;;13.78;7.17;;;;;;;13.10;57.90;100140.06;1782469;79;21855;-80
2021/04/14 12:38:53;;;;;;;10.38;6.25;;;;;;;13.09;57.59;100137.84;1778406;80;21283;-80
2021/04/14 12:42:00;;;;;;;10.05;5.60;;;;;;;13.11;57.47;100134.89;1778644;79;21148;-80
2021/04/14 12:45:08;;;;;;;14.20;6.60;;;;;;;13.07;57.59;100130.84;1781668;80;21265;-80
2021/04/14 12:48:22;;;;;;;12.23;5.90;;;;;;;13.05;57.68;100126.40;1724564;81;21279;-80
2021/04/14 12:51:44;;;;;;;10.65;5.85;;;;;;;13.10;57.36;100123.59;1778805;80;21994;-79
2021/04/14 12:54:49;;;;;;;8.65;5.55;;;;;;;13.16;56.89;100131.03;1720645;81;21521;-80
2021/04/14 12:57:54;;;;;;;9.23;4.80;;;;;;;13.24;56.23;100124.06;1779860;79;21183;-80
2021/04/14 13:01:00;;;;;;;7.55;5.10;;;;;;;13.36;55.95;100127.98;1720835;81;21270;-80
2021/04/14 13:04:26;;;;;;;8.98;5.30;;;;;;;13.44;55.65;100120.95;1773522;80;21179;-80
2021/04/14 13:07:52;;;;;;;15.03;5.60;;;;;;;13.54;54.82;100119.22;1718475;83;21289;-80
2021/04/14 13:11:25;;;;;;;10.40;4.75;;;;;;;13.55;55.07;100116.30;1773384;80;21278;-80
2021/04/14 13:14:32;;;;;;;8.25;4.92;;;;;;;13.60;54.53;100118.44;1711755;83;21222;-79
2021/04/14 13:17:41;;;;;;;8.60;5.20;;;;;;;13.63;54.69;100113.05;1765581;80;21297;-80
2021/04/14 13:20:48;;;;;;;16.20;5.83;;;;;;;13.65;54.36;100115.94;1780719;80;21270;-80
2021/04/14 13:24:00;;;;;;;16.90;8.53;;;;;;;13.64;54.10;100118.87;1783359;80;21313;-79
2021/04/14 13:27:24;;;;;;;16.90;8.68;;;;;;;13.60;54.85;100123.94;1783415;80;21274;-80
2021/04/14 13:30:37;;;;;;;14.73;8.73;;;;;;;13.49;55.08;100115.70;1757706;80;21287;-80
2021/04/14 13:33:49;;;;;;;18.45;9.20;;;;;;;13.39;55.57;100112.45;1714803;83;21274;-80
2021/04/14 13:36:58;;;;;;;25.25;9.98;;;;;;;13.33;56.03;100109.67;1781291;79;21226;-80
2021/04/14 13:40:43;;;;;;;18.42;9.58;;;;;;;13.30;56.16;100095.80;1769989;81;21749;-80
2021/04/14 13:43:55;;;;;;;22.25;10.08;;;;;;;13.23;56.33;100099.88;1767892;81;21649;-80
2021/04/14 13:47:09;;;;;;;15.10;8.13;;;;;;;13.12;56.53;100098.98;1767801;79;21288;-79
2021/04/14 13:50:35;;;;;;;23.22;10.30;;;;;;;13.12;57.19;100095.40;1779444;79;21228;-79
2021/04/14 13:53:42;;;;;;;18.23;9.88;;;;;;;13.10;57.22;100103.84;1763711;81;21288;-79
2021/04/14 13:56:54;;;;;;;29.18;11.65;;;;;;;13.09;57.32;100093.06;1764936;81;21731;-80
2021/04/14 14:00:06;;;;;;;20.92;12.40;;;;;;;13.08;57.38;100087.23;1785415;79;21807;-80
2021/04/14 14:03:11;;;;;;;18.90;10.88;;;;;;;13.04;57.69;100093.66;1799347;79;21845;-80
2021/04/14 14:06:24;;;;;;;25.95;11.85;;;;;;;13.00;57.41;100093.73;1736572;82;21303;-79
2021/04/14 14:09:37;;;;;;;25.82;11.22;;;;;;;12.98;57.17;100093.05;1740685;82;21345;-79
2021/04/14 14:12:46;;;;;;;24.10;12.20;;;;;;;12.97;56.58;100093.58;1740036;82;21191;-80
2021/04/14 14:16:18;;;;;;;25.20;12.63;;;;;;;12.98;57.13;100092.53;1739363;82;21867;-79
2021/04/14 14:19:47;;;;;;;24.75;11.95;;;;;;;13.03;56.84;100086.45;1754951;81;21725;-80
2021/04/14 14:22:56;;;;;;;23.42;12.03;;;;;;;13.03;56.13;100095.56;1769733;79;21725;-79
2021/04/14 14:26:05;;;;;;;34.75;16.70;;;;;;;13.00;56.37;100100.59;1771267;81;21274;-79
2021/04/14 14:29:06;;;;;;;34.75;15.50;;;;;;;12.98;56.20;100093.05;1781019;80;21204;-79
2021/04/14 14:31:58;;;;;;;24.67;13.10;;;;;;;12.98;56.74;100095.27;1771268;81;21314;-80